EGPH

Edinburgh Airport

Edinburgh, United Kingdom
METAR EGPH 181050Z 23018KT 9999 FEW030 SCT044 15/08 Q1011
Observed Flight Rules
Jun-18 @ 10:50 UTC (17 minutes ago) Visual Flight Rules
Wind Visibility Clouds
230° at 18 knots 10,000+ meters
  • Few at 3,000' AGL
  • Scattered at 4,400' AGL
Temperatures Readings
Current 15°C / 59°F
Dewpoint 8°C / 46°F
Humidity 63%
Altimeter 29.85" Hg
Pressure 1011 hPa
Elevation 41
METAR EGPH 181050Z 23018KT 9999 FEW030 SCT044 15/08 Q1011
Observed Flight Rules
Jun-18 @ 10:50 UTC
(17 minutes ago)
VFR
Wind Visibility
230° at 18 knots 10,000+ meters
Clouds
  • Few at 3,000' AGL
  • Scattered at 4,400' AGL
Temperature Dewpoint
15°C / 59°F 8°C / 46°F
Humidity Altimeter Pressure
63% 29.85" Hg 1011 hPa